Time;durP1;ratioP1;P1;durP2;ratioP2;P2;SDS_P1;SDS_P2;PMS_P1;PMS_P2;Temp;Humidity;BMP_temperature;BMP_pressure;BME280_temperature;BME280_humidity;BME280_pressure;Samples;Min_cycle;Max_cycle;Signal;HPM_P1;HPM_P2
2022/03/08 00:00:43;;;;;;;53.58;27.42;;;;;;;;;;5047762;28;20351;-64
2022/03/08 00:03:09;;;;;;;56.08;29.02;;;;;;;;;;5033435;28;20057;-64
2022/03/08 00:05:35;;;;;;;56.58;26.67;;;;;;;;;;5033195;28;20025;-64
2022/03/08 00:08:03;;;;;;;57.58;28.02;;;;;;;;;;5049960;28;20465;-64
2022/03/08 00:10:30;;;;;;;52.03;27.27;;;;;;;;;;5035963;28;20022;-64
2022/03/08 00:12:56;;;;;;;51.72;27.10;;;;;;;;;;5049010;28;20049;-64
2022/03/08 00:15:24;;;;;;;51.15;26.17;;;;;;;;;;5038893;28;20029;-64
2022/03/08 00:17:51;;;;;;;53.88;27.27;;;;;;;;;;5042808;28;20390;-64
2022/03/08 00:20:17;;;;;;;55.50;27.90;;;;;;;;;;5045038;28;20029;-64
2022/03/08 00:22:44;;;;;;;54.13;27.48;;;;;;;;;;5036512;28;20042;-64
2022/03/08 00:25:11;;;;;;;60.08;28.80;;;;;;;;;;5035482;28;20584;-64
2022/03/08 00:27:37;;;;;;;56.00;28.30;;;;;;;;;;5040199;28;20028;-64
2022/03/08 00:30:06;;;;;;;57.05;28.10;;;;;;;;;;5051343;28;20029;-64
2022/03/08 00:32:33;;;;;;;57.17;29.10;;;;;;;;;;5045553;28;20088;-64
2022/03/08 00:34:59;;;;;;;52.05;27.73;;;;;;;;;;5037725;28;20025;-64
2022/03/08 00:37:25;;;;;;;51.67;27.20;;;;;;;;;;5046952;28;20059;-64
2022/03/08 00:39:53;;;;;;;57.40;26.85;;;;;;;;;;5050718;28;20035;-64
2022/03/08 00:42:20;;;;;;;57.92;28.13;;;;;;;;;;5034134;28;20135;-64
2022/03/08 00:44:46;;;;;;;58.05;28.27;;;;;;;;;;5038666;28;20485;-64
2022/03/08 00:47:12;;;;;;;56.38;28.30;;;;;;;;;;5054555;28;20032;-64
2022/03/08 00:49:39;;;;;;;54.00;28.40;;;;;;;;;;5046896;28;20025;-64
2022/03/08 00:52:05;;;;;;;56.95;27.92;;;;;;;;;;5035291;28;20018;-64
2022/03/08 00:54:31;;;;;;;63.70;29.25;;;;;;;;;;5041392;28;20134;-64
2022/03/08 00:56:58;;;;;;;58.92;29.27;;;;;;;;;;5050858;28;20116;-64
2022/03/08 00:59:24;;;;;;;61.15;29.40;;;;;;;;;;5032417;28;20401;-64
2022/03/08 01:01:50;;;;;;;54.80;28.92;;;;;;;;;;5046871;28;20033;-64
2022/03/08 01:04:16;;;;;;;65.65;29.83;;;;;;;;;;5030249;28;20029;-64
2022/03/08 01:06:43;;;;;;;56.00;27.95;;;;;;;;;;5038087;28;20111;-64
2022/03/08 01:09:10;;;;;;;60.28;30.15;;;;;;;;;;5041174;28;20024;-64
2022/03/08 01:11:39;;;;;;;61.25;29.17;;;;;;;;;;5032302;28;20029;-64
2022/03/08 01:14:06;;;;;;;59.92;28.23;;;;;;;;;;5033794;28;20046;-64
2022/03/08 01:16:33;;;;;;;62.15;30.42;;;;;;;;;;5046713;28;20432;-64
2022/03/08 01:18:59;;;;;;;56.88;28.02;;;;;;;;;;5039351;28;20029;-64
2022/03/08 01:21:25;;;;;;;56.67;27.67;;;;;;;;;;5037106;28;20386;-64
2022/03/08 01:23:54;;;;;;;57.80;29.48;;;;;;;;;;5034729;28;20524;-64
2022/03/08 01:26:20;;;;;;;61.58;30.20;;;;;;;;;;5042205;28;20033;-64
2022/03/08 01:28:46;;;;;;;56.92;27.17;;;;;;;;;;5037128;28;20358;-64
2022/03/08 01:31:12;;;;;;;59.58;29.42;;;;;;;;;;5046943;28;20033;-64
2022/03/08 01:33:39;;;;;;;52.33;27.95;;;;;;;;;;5039648;28;20017;-64
2022/03/08 01:36:06;;;;;;;55.25;29.52;;;;;;;;;;5041389;28;20028;-64
2022/03/08 01:38:32;;;;;;;56.88;27.30;;;;;;;;;;5039392;28;20049;-64
2022/03/08 01:40:58;;;;;;;56.45;27.98;;;;;;;;;;5040157;28;20493;-64
2022/03/08 01:43:25;;;;;;;53.90;27.38;;;;;;;;;;5051552;28;20017;-64
2022/03/08 01:45:54;;;;;;;55.90;27.63;;;;;;;;;;5039131;28;20066;-64
2022/03/08 01:48:20;;;;;;;52.83;26.48;;;;;;;;;;5040564;28;20030;-64
2022/03/08 01:50:47;;;;;;;56.15;26.73;;;;;;;;;;5039654;28;20033;-64
2022/03/08 01:53:14;;;;;;;58.70;27.10;;;;;;;;;;5054789;28;20032;-64
2022/03/08 01:55:40;;;;;;;54.13;27.15;;;;;;;;;;5055617;28;20028;-64
2022/03/08 01:58:06;;;;;;;50.70;26.70;;;;;;;;;;5051439;28;20425;-64
2022/03/08 02:00:33;;;;;;;53.05;25.75;;;;;;;;;;5042922;28;20034;-64
2022/03/08 02:03:00;;;;;;;49.47;25.42;;;;;;;;;;5036710;28;20127;-64
2022/03/08 02:05:27;;;;;;;54.00;25.95;;;;;;;;;;5036944;28;20055;-64
2022/03/08 02:07:53;;;;;;;52.13;25.67;;;;;;;;;;5055466;28;20083;-64
2022/03/08 02:10:19;;;;;;;59.05;25.45;;;;;;;;;;5035365;28;20025;-64
2022/03/08 02:12:46;;;;;;;55.90;25.25;;;;;;;;;;5035008;28;20068;-64
2022/03/08 02:15:19;;;;;;;52.58;26.08;;;;;;;;;;5035041;28;20026;-64
2022/03/08 02:17:45;;;;;;;53.25;24.40;;;;;;;;;;5043999;28;20396;-64
2022/03/08 02:20:14;;;;;;;50.53;23.90;;;;;;;;;;5055210;28;20056;-64
2022/03/08 02:22:41;;;;;;;45.15;22.33;;;;;;;;;;5041724;28;20021;-64
2022/03/08 02:25:08;;;;;;;45.13;23.52;;;;;;;;;;5035134;28;20030;-64
2022/03/08 02:27:34;;;;;;;45.03;23.00;;;;;;;;;;5034977;28;20025;-64
2022/03/08 02:30:00;;;;;;;44.90;22.25;;;;;;;;;;5042493;28;20029;-64
2022/03/08 02:32:26;;;;;;;44.83;22.48;;;;;;;;;;5043750;28;20048;-64
2022/03/08 02:34:52;;;;;;;51.88;24.02;;;;;;;;;;5047263;28;20025;-64
2022/03/08 02:37:20;;;;;;;41.60;21.02;;;;;;;;;;5037961;28;20057;-64
2022/03/08 02:39:46;;;;;;;47.10;23.45;;;;;;;;;;5049393;28;20079;-64
2022/03/08 02:42:13;;;;;;;45.63;22.35;;;;;;;;;;5043614;28;20025;-64
2022/03/08 02:44:39;;;;;;;45.67;23.42;;;;;;;;;;5047556;28;20025;-64
2022/03/08 02:47:05;;;;;;;39.10;21.17;;;;;;;;;;5052318;28;20078;-64
2022/03/08 02:49:32;;;;;;;46.58;22.23;;;;;;;;;;5037993;28;20024;-64
2022/03/08 02:51:58;;;;;;;43.85;21.50;;;;;;;;;;5045222;28;20024;-64
2022/03/08 02:54:25;;;;;;;46.40;21.27;;;;;;;;;;5043812;28;20029;-64
2022/03/08 02:56:51;;;;;;;45.70;22.50;;;;;;;;;;5037969;28;20034;-64
2022/03/08 02:59:20;;;;;;;50.83;22.88;;;;;;;;;;5050799;28;20029;-64
2022/03/08 03:01:47;;;;;;;47.05;21.90;;;;;;;;;;5038044;28;20053;-64
2022/03/08 03:04:13;;;;;;;49.35;22.15;;;;;;;;;;5045948;28;20029;-64
2022/03/08 03:06:39;;;;;;;49.13;22.70;;;;;;;;;;5044218;28;20028;-64
2022/03/08 03:09:06;;;;;;;43.70;20.50;;;;;;;;;;5039580;28;20504;-64
2022/03/08 03:11:32;;;;;;;44.75;22.27;;;;;;;;;;5042632;28;20080;-64
2022/03/08 03:13:58;;;;;;;51.28;22.48;;;;;;;;;;5046478;28;20029;-64
2022/03/08 03:16:24;;;;;;;47.10;22.88;;;;;;;;;;5044369;28;20030;-64
2022/03/08 03:18:50;;;;;;;47.25;21.02;;;;;;;;;;5039605;28;20028;-64
2022/03/08 03:21:16;;;;;;;43.40;20.75;;;;;;;;;;5054488;28;20041;-64
2022/03/08 03:23:43;;;;;;;46.30;21.10;;;;;;;;;;5044031;28;20033;-64
2022/03/08 03:26:09;;;;;;;43.28;21.08;;;;;;;;;;5034354;28;20022;-64
2022/03/08 03:28:35;;;;;;;45.65;22.13;;;;;;;;;;5039825;28;20497;-64
2022/03/08 03:31:01;;;;;;;48.42;21.50;;;;;;;;;;5041385;28;20025;-64
2022/03/08 03:33:27;;;;;;;37.63;20.13;;;;;;;;;;5050197;28;20032;-64
2022/03/08 03:35:54;;;;;;;42.15;21.20;;;;;;;;;;5037951;28;20079;-64
2022/03/08 03:38:20;;;;;;;45.80;21.67;;;;;;;;;;5047641;28;20025;-64
2022/03/08 03:40:46;;;;;;;45.92;21.70;;;;;;;;;;5037913;28;20111;-64
2022/03/08 03:43:12;;;;;;;45.72;20.35;;;;;;;;;;5049853;28;20029;-64
2022/03/08 03:45:38;;;;;;;48.63;20.80;;;;;;;;;;5049791;28;20480;-64
2022/03/08 03:48:04;;;;;;;44.60;20.58;;;;;;;;;;5046937;28;20029;-64
2022/03/08 03:50:31;;;;;;;47.83;20.70;;;;;;;;;;5039126;28;20102;-64
2022/03/08 03:52:57;;;;;;;46.08;22.02;;;;;;;;;;5033631;28;20033;-64
2022/03/08 03:55:23;;;;;;;42.35;20.75;;;;;;;;;;5035560;28;20076;-64
2022/03/08 03:57:49;;;;;;;46.80;22.27;;;;;;;;;;5032542;28;20406;-64
2022/03/08 04:00:16;;;;;;;46.40;21.15;;;;;;;;;;5033619;28;20453;-64
2022/03/08 04:02:43;;;;;;;42.38;20.60;;;;;;;;;;5033159;28;20039;-64
2022/03/08 04:05:09;;;;;;;48.80;22.75;;;;;;;;;;5051598;28;20032;-64
2022/03/08 04:07:36;;;;;;;46.20;20.60;;;;;;;;;;5052440;28;20381;-64
2022/03/08 04:10:03;;;;;;;42.33;20.13;;;;;;;;;;5043161;28;20079;-64
2022/03/08 04:12:29;;;;;;;42.75;20.20;;;;;;;;;;5040963;28;20052;-64
2022/03/08 04:14:56;;;;;;;47.70;21.88;;;;;;;;;;5034209;28;20025;-64
2022/03/08 04:17:22;;;;;;;42.55;20.73;;;;;;;;;;5036012;28;20396;-64
2022/03/08 04:19:48;;;;;;;40.30;20.45;;;;;;;;;;5048551;28;20048;-64
2022/03/08 04:22:14;;;;;;;42.55;20.33;;;;;;;;;;5043348;28;20040;-64
2022/03/08 04:24:40;;;;;;;46.15;19.50;;;;;;;;;;5035857;28;20022;-64
2022/03/08 04:27:07;;;;;;;46.38;21.33;;;;;;;;;;5059046;28;20479;-64
2022/03/08 04:29:33;;;;;;;44.38;20.80;;;;;;;;;;5061852;28;20029;-64
2022/03/08 04:31:59;;;;;;;49.35;21.55;;;;;;;;;;5035239;28;20163;-64
2022/03/08 04:34:25;;;;;;;43.47;20.17;;;;;;;;;;5058224;28;20386;-64
2022/03/08 04:36:51;;;;;;;47.60;21.75;;;;;;;;;;5049536;28;20511;-64
2022/03/08 04:39:17;;;;;;;40.72;19.58;;;;;;;;;;5042461;28;20025;-65
2022/03/08 04:41:44;;;;;;;40.92;19.83;;;;;;;;;;5042178;28;20026;-65
2022/03/08 04:44:10;;;;;;;39.63;20.25;;;;;;;;;;5043843;28;20032;-64
2022/03/08 04:46:37;;;;;;;45.92;21.42;;;;;;;;;;5039844;28;20033;-64
2022/03/08 04:49:03;;;;;;;40.05;18.85;;;;;;;;;;5039469;28;20028;-64
2022/03/08 04:51:29;;;;;;;46.13;21.42;;;;;;;;;;5040661;28;20040;-64
2022/03/08 04:53:55;;;;;;;44.60;22.13;;;;;;;;;;5041344;28;20444;-64
2022/03/08 04:56:22;;;;;;;45.05;20.52;;;;;;;;;;5043667;28;20039;-64
2022/03/08 04:58:48;;;;;;;44.22;19.63;;;;;;;;;;5039832;28;20057;-68
2022/03/08 05:01:15;;;;;;;42.13;20.35;;;;;;;;;;5045070;28;20496;-63
2022/03/08 05:03:41;;;;;;;40.90;19.10;;;;;;;;;;5040458;28;20120;-64
2022/03/08 05:06:07;;;;;;;39.88;19.13;;;;;;;;;;5042333;28;20076;-64
2022/03/08 05:08:34;;;;;;;50.15;20.75;;;;;;;;;;5035721;28;20544;-64
2022/03/08 05:11:02;;;;;;;40.03;18.73;;;;;;;;;;5042249;28;20017;-64
2022/03/08 05:13:30;;;;;;;39.50;18.63;;;;;;;;;;5050241;28;20044;-64
2022/03/08 05:15:57;;;;;;;48.10;19.60;;;;;;;;;;5035315;28;20041;-64
2022/03/08 05:18:23;;;;;;;43.65;19.70;;;;;;;;;;5047034;28;20021;-64
2022/03/08 05:20:49;;;;;;;44.25;19.48;;;;;;;;;;5041109;28;20033;-64
2022/03/08 05:23:15;;;;;;;43.50;21.08;;;;;;;;;;5047360;28;20048;-64
2022/03/08 05:25:45;;;;;;;45.38;20.00;;;;;;;;;;5037390;28;20029;-64
2022/03/08 05:28:11;;;;;;;46.92;21.23;;;;;;;;;;5036972;28;20497;-64
2022/03/08 05:30:37;;;;;;;39.25;18.67;;;;;;;;;;5043362;28;20029;-64
2022/03/08 05:33:04;;;;;;;43.67;19.77;;;;;;;;;;5055136;28;20021;-64
2022/03/08 05:35:30;;;;;;;43.53;18.67;;;;;;;;;;5042304;28;20111;-64
2022/03/08 05:37:56;;;;;;;49.30;20.15;;;;;;;;;;5046220;28;20044;-64
2022/03/08 05:40:22;;;;;;;49.40;21.08;;;;;;;;;;5046432;28;20107;-64
2022/03/08 05:42:48;;;;;;;43.97;19.70;;;;;;;;;;5045233;28;20033;-64
2022/03/08 05:45:15;;;;;;;44.85;20.00;;;;;;;;;;5045048;28;20039;-64
2022/03/08 05:47:41;;;;;;;44.75;20.00;;;;;;;;;;5054223;28;20029;-64
2022/03/08 05:50:08;;;;;;;47.00;21.00;;;;;;;;;;5040506;28;20067;-64
2022/03/08 05:52:34;;;;;;;47.45;22.75;;;;;;;;;;5035803;28;20029;-64
2022/03/08 05:55:01;;;;;;;47.03;20.15;;;;;;;;;;5045095;28;20505;-69
2022/03/08 05:57:27;;;;;;;44.17;20.58;;;;;;;;;;5050298;28;20041;-64
2022/03/08 05:59:53;;;;;;;49.60;20.77;;;;;;;;;;5047585;28;20030;-65
2022/03/08 06:02:21;;;;;;;41.90;21.95;;;;;;;;;;5042377;28;20025;-64
2022/03/08 06:04:47;;;;;;;47.25;20.92;;;;;;;;;;5035811;28;20048;-64
2022/03/08 06:07:13;;;;;;;44.38;21.10;;;;;;;;;;5051507;28;20082;-69
2022/03/08 06:09:39;;;;;;;48.08;21.58;;;;;;;;;;5049976;28;20017;-64
2022/03/08 06:12:06;;;;;;;44.22;20.15;;;;;;;;;;5045033;28;20033;-68
2022/03/08 06:14:32;;;;;;;89.47;34.72;;;;;;;;;;5038126;28;20469;-65
2022/03/08 06:16:58;;;;;;;56.63;24.67;;;;;;;;;;5049692;28;20119;-64
2022/03/08 06:19:24;;;;;;;53.60;25.70;;;;;;;;;;5039182;28;20028;-65
2022/03/08 06:21:51;;;;;;;46.42;25.10;;;;;;;;;;5046412;28;20373;-65
2022/03/08 06:24:17;;;;;;;49.88;26.23;;;;;;;;;;5047986;28;20088;-65
2022/03/08 06:26:44;;;;;;;46.70;22.02;;;;;;;;;;5042984;28;20039;-65
2022/03/08 06:29:10;;;;;;;47.13;21.48;;;;;;;;;;5050266;28;20063;-65
2022/03/08 06:31:37;;;;;;;42.30;19.90;;;;;;;;;;5042083;28;20025;-65
2022/03/08 06:34:03;;;;;;;41.75;21.60;;;;;;;;;;5046360;28;20492;-65
2022/03/08 06:36:29;;;;;;;41.58;21.92;;;;;;;;;;5045877;28;20037;-65
2022/03/08 06:38:56;;;;;;;43.92;20.85;;;;;;;;;;5048071;28;20033;-65
2022/03/08 06:41:22;;;;;;;40.25;20.30;;;;;;;;;;5051386;28;20033;-65
2022/03/08 06:43:48;;;;;;;45.45;20.80;;;;;;;;;;5048574;28;20408;-65
2022/03/08 06:46:14;;;;;;;44.65;20.77;;;;;;;;;;5048978;28;20501;-65
2022/03/08 06:48:40;;;;;;;44.08;20.80;;;;;;;;;;5052734;28;20032;-65
2022/03/08 06:51:06;;;;;;;42.72;20.50;;;;;;;;;;5053851;28;20055;-65
2022/03/08 06:53:33;;;;;;;41.55;20.77;;;;;;;;;;5052813;28;20508;-65
2022/03/08 06:55:59;;;;;;;42.78;18.85;;;;;;;;;;5051258;28;20031;-65
2022/03/08 06:58:25;;;;;;;41.40;20.05;;;;;;;;;;5045507;28;20071;-65
2022/03/08 07:00:51;;;;;;;43.92;20.45;;;;;;;;;;5038114;28;20049;-65
2022/03/08 07:03:17;;;;;;;44.22;21.02;;;;;;;;;;5041743;28;20033;-65
2022/03/08 07:05:43;;;;;;;41.03;20.38;;;;;;;;;;5042707;28;20036;-65
2022/03/08 07:08:10;;;;;;;41.33;20.10;;;;;;;;;;5045260;28;20037;-65
2022/03/08 07:10:36;;;;;;;42.15;20.25;;;;;;;;;;5052891;28;20025;-65
2022/03/08 07:13:02;;;;;;;46.45;22.10;;;;;;;;;;5034466;28;20049;-65
2022/03/08 07:15:28;;;;;;;42.40;19.55;;;;;;;;;;5034346;28;20108;-65
2022/03/08 07:17:54;;;;;;;37.00;18.55;;;;;;;;;;5040131;28;20024;-65
2022/03/08 07:20:20;;;;;;;41.53;19.55;;;;;;;;;;5054337;28;20466;-65
2022/03/08 07:22:47;;;;;;;36.95;17.40;;;;;;;;;;5054092;28;20110;-65
2022/03/08 07:25:15;;;;;;;39.50;20.00;;;;;;;;;;5053913;28;20181;-65
2022/03/08 07:27:41;;;;;;;35.25;18.77;;;;;;;;;;5054292;28;20032;-65
2022/03/08 07:30:08;;;;;;;42.05;19.08;;;;;;;;;;5054340;28;20029;-65
2022/03/08 07:32:34;;;;;;;38.63;19.02;;;;;;;;;;5054091;28;20638;-65
2022/03/08 07:35:00;;;;;;;39.38;18.00;;;;;;;;;;5053956;28;20083;-65
2022/03/08 07:37:26;;;;;;;34.00;17.58;;;;;;;;;;5053940;28;20380;-65
2022/03/08 07:39:53;;;;;;;33.15;17.27;;;;;;;;;;5054004;28;20033;-65
2022/03/08 07:42:19;;;;;;;39.35;18.63;;;;;;;;;;5045267;28;20113;-65
2022/03/08 07:44:45;;;;;;;36.45;18.08;;;;;;;;;;5042778;28;20048;-65
2022/03/08 07:47:11;;;;;;;33.03;17.33;;;;;;;;;;5053557;28;20031;-65
2022/03/08 07:49:38;;;;;;;36.30;17.42;;;;;;;;;;5045667;28;20033;-65
2022/03/08 07:52:04;;;;;;;39.28;18.02;;;;;;;;;;5035381;28;20030;-65
2022/03/08 07:54:30;;;;;;;40.85;18.55;;;;;;;;;;5053411;28;20463;-65
2022/03/08 07:56:56;;;;;;;44.83;18.90;;;;;;;;;;5053932;28;20036;-65
2022/03/08 07:59:23;;;;;;;44.05;20.00;;;;;;;;;;5053521;28;20049;-65
2022/03/08 08:01:49;;;;;;;52.38;22.02;;;;;;;;;;5053598;28;20068;-65
2022/03/08 08:04:15;;;;;;;42.42;20.38;;;;;;;;;;5053153;28;20039;-66
2022/03/08 08:06:41;;;;;;;53.10;21.58;;;;;;;;;;5053550;28;20060;-65
2022/03/08 08:09:07;;;;;;;35.60;18.75;;;;;;;;;;5053491;28;20408;-65
2022/03/08 08:11:33;;;;;;;35.08;17.02;;;;;;;;;;5053190;28;20036;-65
2022/03/08 08:14:00;;;;;;;34.65;16.90;;;;;;;;;;5053542;28;20029;-65
2022/03/08 08:16:26;;;;;;;31.42;16.17;;;;;;;;;;5053188;28;20500;-66
2022/03/08 08:18:52;;;;;;;29.67;14.85;;;;;;;;;;5052960;28;20055;-66
2022/03/08 08:21:18;;;;;;;31.55;17.05;;;;;;;;;;5053285;28;20385;-66
2022/03/08 08:23:44;;;;;;;37.08;15.93;;;;;;;;;;5053125;28;20059;-65
2022/03/08 08:26:10;;;;;;;28.58;14.75;;;;;;;;;;5053178;28;20029;-65
2022/03/08 08:28:36;;;;;;;29.80;15.32;;;;;;;;;;5053012;28;20021;-66
2022/03/08 08:31:02;;;;;;;31.45;15.93;;;;;;;;;;5053100;28;20033;-65
2022/03/08 08:33:29;;;;;;;33.15;15.23;;;;;;;;;;5052595;28;20033;-66
2022/03/08 08:35:56;;;;;;;37.03;15.13;;;;;;;;;;5053150;28;20374;-65
2022/03/08 08:38:22;;;;;;;30.30;15.25;;;;;;;;;;5052853;28;20075;-65
2022/03/08 08:40:48;;;;;;;26.77;13.95;;;;;;;;;;5052977;28;20037;-66
2022/03/08 08:43:14;;;;;;;34.80;14.80;;;;;;;;;;5052981;28;20036;-65
2022/03/08 08:45:40;;;;;;;28.17;15.00;;;;;;;;;;5052834;28;20065;-65
2022/03/08 08:48:07;;;;;;;34.17;14.23;;;;;;;;;;5052578;28;20032;-65
2022/03/08 08:50:33;;;;;;;28.67;14.32;;;;;;;;;;5052456;28;20370;-65
2022/03/08 08:52:59;;;;;;;26.17;14.45;;;;;;;;;;5052867;28;20029;-65
2022/03/08 08:55:25;;;;;;;31.38;15.48;;;;;;;;;;5052385;28;20025;-65
2022/03/08 08:57:51;;;;;;;30.75;13.82;;;;;;;;;;5052955;28;20036;-65
2022/03/08 09:00:18;;;;;;;34.50;14.95;;;;;;;;;;5052416;28;20075;-65
2022/03/08 09:02:45;;;;;;;30.63;14.15;;;;;;;;;;5052399;28;20472;-65
2022/03/08 09:05:12;;;;;;;27.73;13.73;;;;;;;;;;5051314;28;20452;-65
2022/03/08 09:07:39;;;;;;;31.77;14.07;;;;;;;;;;5052313;28;20033;-66
2022/03/08 09:10:06;;;;;;;26.38;13.82;;;;;;;;;;5052845;28;20029;-66
2022/03/08 09:12:33;;;;;;;28.02;13.32;;;;;;;;;;5052073;28;20390;-65
2022/03/08 09:15:01;;;;;;;31.70;14.43;;;;;;;;;;5052623;28;20572;-66
2022/03/08 09:17:28;;;;;;;28.60;14.90;;;;;;;;;;5052020;28;20459;-66
2022/03/08 09:19:54;;;;;;;25.48;13.40;;;;;;;;;;5052474;28;20103;-66
2022/03/08 09:22:20;;;;;;;28.20;13.45;;;;;;;;;;5052574;28;20025;-66
2022/03/08 09:24:46;;;;;;;28.27;13.70;;;;;;;;;;5052493;28;20033;-66
2022/03/08 09:27:12;;;;;;;29.42;15.10;;;;;;;;;;5052475;28;20075;-66
2022/03/08 09:29:38;;;;;;;26.90;13.52;;;;;;;;;;5052221;28;20041;-66
2022/03/08 09:32:04;;;;;;;27.27;13.60;;;;;;;;;;5052289;28;20162;-66
2022/03/08 09:34:31;;;;;;;26.77;13.90;;;;;;;;;;5052332;28;20025;-66
2022/03/08 09:36:57;;;;;;;29.50;14.55;;;;;;;;;;5052550;28;20093;-66
2022/03/08 09:39:23;;;;;;;28.55;14.43;;;;;;;;;;5052306;28;20554;-66
2022/03/08 09:41:53;;;;;;;30.85;14.23;;;;;;;;;;5052411;28;20420;-66
2022/03/08 09:44:19;;;;;;;26.75;13.65;;;;;;;;;;5052453;28;20041;-66
2022/03/08 09:46:45;;;;;;;28.10;13.52;;;;;;;;;;5051955;28;20036;-66
2022/03/08 09:49:11;;;;;;;30.95;14.40;;;;;;;;;;5052104;28;20120;-66
2022/03/08 09:51:38;;;;;;;27.67;13.75;;;;;;;;;;5052166;28;20078;-66
2022/03/08 09:54:05;;;;;;;30.00;13.75;;;;;;;;;;5052420;28;20032;-66
2022/03/08 09:56:31;;;;;;;29.65;14.57;;;;;;;;;;5052232;28;20025;-66
2022/03/08 09:58:59;;;;;;;28.67;12.57;;;;;;;;;;5052361;28;20463;-66
2022/03/08 10:01:25;;;;;;;28.20;13.63;;;;;;;;;;5051792;28;20028;-66
2022/03/08 10:03:51;;;;;;;30.42;12.52;;;;;;;;;;5052299;28;20445;-66
2022/03/08 10:06:18;;;;;;;31.02;14.10;;;;;;;;;;5052094;28;20029;-66
2022/03/08 10:08:45;;;;;;;31.30;14.48;;;;;;;;;;5051825;28;20083;-66
2022/03/08 10:11:12;;;;;;;27.27;13.35;;;;;;;;;;5052368;28;20068;-66
2022/03/08 10:13:45;;;;;;;28.63;13.60;;;;;;;;;;5054319;28;20096;-66
2022/03/08 10:16:12;;;;;;;32.90;14.05;;;;;;;;;;5055630;28;20465;-66
2022/03/08 10:18:40;;;;;;;26.40;12.27;;;;;;;;;;5055677;28;20025;-66
2022/03/08 10:21:24;;;;;;;30.98;14.05;;;;;;;;;;5055658;28;20036;-66
2022/03/08 10:23:50;;;;;;;38.13;14.07;;;;;;;;;;5055279;28;20380;-66
2022/03/08 10:26:16;;;;;;;30.15;12.73;;;;;;;;;;5055484;28;20036;-66
2022/03/08 10:28:46;;;;;;;27.50;13.88;;;;;;;;;;5055159;28;20040;-66
2022/03/08 10:31:13;;;;;;;32.40;13.63;;;;;;;;;;5055292;28;20029;-66
2022/03/08 10:33:39;;;;;;;29.08;12.80;;;;;;;;;;5055257;28;20025;-66
2022/03/08 10:36:12;;;;;;;25.38;13.38;;;;;;;;;;5043725;28;20057;-66
2022/03/08 10:38:39;;;;;;;27.02;12.60;;;;;;;;;;5035236;28;20035;-66
2022/03/08 10:41:19;;;;;;;25.67;13.23;;;;;;;;;;5035485;28;20045;-66
2022/03/08 10:43:48;;;;;;;29.70;13.82;;;;;;;;;;5034772;28;20033;-66
2022/03/08 10:46:17;;;;;;;33.05;12.93;;;;;;;;;;5035257;28;20027;-66
2022/03/08 10:48:46;;;;;;;27.67;13.02;;;;;;;;;;5035063;28;20061;-66
2022/03/08 10:51:16;;;;;;;27.42;13.35;;;;;;;;;;5035249;28;20026;-66
2022/03/08 10:53:45;;;;;;;26.17;13.20;;;;;;;;;;5034924;28;20116;-66
2022/03/08 10:56:12;;;;;;;25.90;12.60;;;;;;;;;;5035262;28;20032;-66
2022/03/08 10:59:04;;;;;;;28.95;14.25;;;;;;;;;;5034561;28;20048;-66
2022/03/08 11:01:30;;;;;;;25.33;12.68;;;;;;;;;;5033096;28;20037;-66
2022/03/08 11:03:58;;;;;;;27.77;13.20;;;;;;;;;;5034974;28;20524;-66
2022/03/08 11:06:24;;;;;;;34.53;13.45;;;;;;;;;;5035082;28;20367;-66
2022/03/08 11:08:52;;;;;;;29.13;12.57;;;;;;;;;;5034578;28;20028;-66
2022/03/08 11:11:19;;;;;;;31.95;13.25;;;;;;;;;;5035081;28;20394;-66
2022/03/08 11:13:47;;;;;;;24.52;14.30;;;;;;;;;;5034113;28;20468;-66
2022/03/08 11:16:14;;;;;;;27.48;13.35;;;;;;;;;;5034857;28;20060;-66
2022/03/08 11:18:44;;;;;;;28.75;12.45;;;;;;;;;;5034603;28;20018;-66
2022/03/08 11:21:10;;;;;;;29.75;13.57;;;;;;;;;;5034759;28;20512;-66
2022/03/08 11:23:36;;;;;;;26.02;12.45;;;;;;;;;;5038307;28;20049;-66
2022/03/08 11:26:03;;;;;;;26.65;13.00;;;;;;;;;;5054620;28;20029;-66
2022/03/08 11:28:29;;;;;;;32.92;13.27;;;;;;;;;;5048140;28;20112;-66
2022/03/08 11:30:56;;;;;;;27.20;14.02;;;;;;;;;;5038581;28;20030;-66
2022/03/08 11:33:31;;;;;;;28.20;15.30;;;;;;;;;;5053870;28;20029;-65
2022/03/08 11:36:08;;;;;;;24.70;13.63;;;;;;;;;;5041876;28;20029;-65
2022/03/08 11:38:35;;;;;;;30.75;13.32;;;;;;;;;;5033868;28;20051;-65
2022/03/08 11:41:01;;;;;;;33.95;15.45;;;;;;;;;;5034911;28;20029;-65
2022/03/08 11:43:37;;;;;;;26.40;12.18;;;;;;;;;;5043807;28;20037;-65
2022/03/08 11:46:30;;;;;;;27.20;11.80;;;;;;;;;;5045763;28;20029;-65
2022/03/08 11:48:58;;;;;;;28.90;12.80;;;;;;;;;;5038937;28;20400;-65
2022/03/08 11:51:25;;;;;;;38.38;13.93;;;;;;;;;;5035855;28;20033;-65
2022/03/08 11:54:03;;;;;;;25.88;12.07;;;;;;;;;;5039529;28;20025;-65
2022/03/08 11:56:30;;;;;;;26.13;12.88;;;;;;;;;;5035714;28;20116;-65
2022/03/08 11:59:08;;;;;;;22.60;10.85;;;;;;;;;;5041505;28;20040;-65
2022/03/08 12:01:36;;;;;;;22.65;11.68;;;;;;;;;;5041773;28;20040;-65
2022/03/08 12:04:10;;;;;;;23.73;11.52;;;;;;;;;;5042216;28;20052;-65
2022/03/08 12:06:37;;;;;;;23.33;12.07;;;;;;;;;;5054653;28;20593;-65
2022/03/08 12:09:12;;;;;;;22.42;10.60;;;;;;;;;;5038980;28;20049;-65
2022/03/08 12:11:39;;;;;;;27.48;12.05;;;;;;;;;;5050268;28;20115;-65
2022/03/08 12:14:06;;;;;;;26.90;13.68;;;;;;;;;;5033630;28;20385;-65
2022/03/08 12:16:32;;;;;;;23.60;12.02;;;;;;;;;;5033259;28;20044;-65
2022/03/08 12:18:59;;;;;;;24.10;10.90;;;;;;;;;;5036744;28;20028;-65
2022/03/08 12:21:25;;;;;;;24.77;11.90;;;;;;;;;;5052249;28;20053;-65
2022/03/08 12:23:53;;;;;;;21.17;11.32;;;;;;;;;;5052620;28;20031;-65
2022/03/08 12:26:25;;;;;;;21.42;11.32;;;;;;;;;;5053047;28;20033;-65
2022/03/08 12:29:10;;;;;;;17.00;8.80;;;;;;;;;;5051888;28;20032;-65
2022/03/08 12:32:08;;;;;;;19.35;9.98;;;;;;;;;;5041057;28;20029;-66
2022/03/08 12:34:38;;;;;;;22.60;8.90;;;;;;;;;;5031727;28;20037;-65
2022/03/08 12:37:09;;;;;;;21.10;9.95;;;;;;;;;;5035259;28;20045;-65
2022/03/08 12:39:55;;;;;;;20.58;9.52;;;;;;;;;;5032510;28;20164;-65
2022/03/08 12:42:30;;;;;;;17.15;8.68;;;;;;;;;;5038589;28;20461;-65
2022/03/08 12:44:58;;;;;;;17.92;7.72;;;;;;;;;;5042736;28;20061;-65
2022/03/08 12:47:24;;;;;;;18.50;6.93;;;;;;;;;;5047353;28;20554;-65
2022/03/08 12:49:50;;;;;;;14.20;7.47;;;;;;;;;;5045207;28;20413;-65
2022/03/08 12:52:17;;;;;;;14.35;7.90;;;;;;;;;;5035982;28;20423;-65
2022/03/08 12:54:44;;;;;;;23.70;8.18;;;;;;;;;;5052490;28;20082;-66
2022/03/08 12:57:11;;;;;;;17.42;7.57;;;;;;;;;;5052702;28;20381;-66
2022/03/08 12:59:44;;;;;;;17.70;7.03;;;;;;;;;;5052760;28;20140;-66
2022/03/08 13:02:11;;;;;;;21.60;8.02;;;;;;;;;;5052515;28;20036;-66
2022/03/08 13:04:37;;;;;;;15.88;8.25;;;;;;;;;;5052883;28;20045;-66
2022/03/08 13:07:11;;;;;;;16.83;7.32;;;;;;;;;;5052432;28;20029;-66
2022/03/08 13:09:57;;;;;;;15.23;6.75;;;;;;;;;;5052270;28;20033;-65
2022/03/08 13:12:24;;;;;;;13.77;7.45;;;;;;;;;;5052378;28;20426;-65
2022/03/08 13:15:08;;;;;;;15.52;7.20;;;;;;;;;;5052679;28;20033;-65
2022/03/08 13:17:35;;;;;;;15.93;7.65;;;;;;;;;;5052652;28;20112;-65
2022/03/08 13:20:01;;;;;;;16.08;7.25;;;;;;;;;;5052579;28;20025;-65
2022/03/08 13:22:27;;;;;;;19.65;7.45;;;;;;;;;;5052141;28;20047;-65
2022/03/08 13:25:09;;;;;;;14.60;7.22;;;;;;;;;;5052195;28;20538;-65
2022/03/08 13:27:55;;;;;;;14.02;7.22;;;;;;;;;;5052653;28;20043;-66
2022/03/08 13:30:23;;;;;;;12.57;6.68;;;;;;;;;;5052447;28;20457;-66
2022/03/08 13:33:08;;;;;;;13.45;7.25;;;;;;;;;;5052309;28;20096;-66
2022/03/08 13:35:38;;;;;;;19.05;5.97;;;;;;;;;;5052532;28;20040;-66
2022/03/08 13:38:04;;;;;;;12.18;6.38;;;;;;;;;;5052134;28;20056;-66
2022/03/08 13:40:32;;;;;;;14.20;5.72;;;;;;;;;;5052386;28;20119;-65
2022/03/08 13:42:59;;;;;;;9.57;5.30;;;;;;;;;;5052256;28;20484;-65
2022/03/08 13:45:25;;;;;;;10.48;4.38;;;;;;;;;;5052109;28;20032;-65
2022/03/08 13:47:54;;;;;;;9.82;4.53;;;;;;;;;;5053868;28;20032;-65
2022/03/08 13:50:21;;;;;;;15.80;4.35;;;;;;;;;;5055913;28;20021;-65
2022/03/08 13:52:58;;;;;;;10.98;4.38;;;;;;;;;;5056144;28;20082;-66
2022/03/08 13:55:28;;;;;;;9.98;5.30;;;;;;;;;;5056011;28;20037;-66
2022/03/08 13:57:54;;;;;;;7.72;4.00;;;;;;;;;;5056237;28;20094;-66
2022/03/08 14:00:20;;;;;;;5.30;2.95;;;;;;;;;;5055969;28;20111;-65
2022/03/08 14:02:46;;;;;;;4.95;2.20;;;;;;;;;;5056069;28;20485;-65
2022/03/08 14:05:12;;;;;;;9.90;2.13;;;;;;;;;;5055746;28;20033;-65
2022/03/08 14:07:38;;;;;;;7.10;2.15;;;;;;;;;;5055449;28;20072;-66
2022/03/08 14:10:05;;;;;;;5.07;1.80;;;;;;;;;;5056052;28;20021;-65
2022/03/08 14:12:43;;;;;;;7.03;1.67;;;;;;;;;;5055453;28;20037;-65
2022/03/08 14:15:10;;;;;;;4.78;1.80;;;;;;;;;;5055563;28;20028;-66
2022/03/08 14:17:36;;;;;;;6.90;1.88;;;;;;;;;;5055892;28;20112;-66
2022/03/08 14:20:15;;;;;;;4.47;2.00;;;;;;;;;;5055586;28;20041;-66